Aeroporto :
LOGIN :

Iscrizione | Disclaimer

   EN    FR    IT 

 










Sommario :    VFR   VFR Marginale   IFR   IFR Intensivo   IFR Molto Intensivo
Visibilità : 
Base nubi : 
>= 8 km
>= 3000ft
5 / 8 km
1000 / 3000 ft
1500m / 5 km
500 / 1000 ft
800 / 1500m
200 / 500 ft
< 800m
< 200 ft
Simboli :   Temporali  Nebbia  Neve Forte  Precipitazioni Forti  Vento > 20 kt
SIGMETs :   Varie  Temporali  Ghiacco  Turbolenza  Onda orograficha  Ceneri Vulcaniche






- Altitudine del aeroporto : 202 ft
- Codice IATA : SQZ


EGXP - RAF Scampton

ULTIMO METAR :
  • 140850Z 04014KT 9999 -RA SCT013 SCT022 BKN031 06/06 Q0996 RMK GRN

METARs OBSOLETI :
  • 140750Z 06012KT 6000 -DZ SCT012 BKN026 06/06 Q0996 RMK GRN
  • 140650Z AUTO 06012KT 7000 // SCT018/// BKN035/// 06/06 Q0995

TAF TAF EGXP
Valido dal 14 a 09 ore il 14 a 18 ore UTC


140750Z 1409/1418 04014KT 9999 BKN018
TEMPO 1409/1410 04017G27KT 7000 SHRA SCT012 BKN018
TEMPO 1410/1416 04017G27KT 4000 RA BKN010
PROB30
TEMPO 1410/1416 3000 +RA SCT006 BKN010
BECMG 1416/1418 BKN035



MetMap, La meteo Aeronautica in un colpo d'occhio ! - Copyright ORBIFLY Dicembre 2007 - Disclaimer

ORBIFLY MET'MAP TEAM :

Programmazione e sviluppo : Alexandra Zaïnal
Concezione e sviluppo : Baudouin d'Aumeries
Co-Programmazione e sviluppo : Marc-Olivier Méhu
Supporto tecnico e logistico : Manuel Goepfert
Aiuto per la traduzione : Arnaldo La Scala

Contatto : metmap@orbifly.com




FONTI E CREDITI :

   NOAA